Time;durP1;ratioP1;P1;durP2;ratioP2;P2;SDS_P1;SDS_P2;PMS_P1;PMS_P2;Temp;Humidity;BMP_temperature;BMP_pressure;BME280_temperature;BME280_humidity;BME280_pressure;Samples;Min_cycle;Max_cycle;Signal;HPM_P1;HPM_P2
2022/08/30 05:21:09;;;;;;;;;;;;;;;23.56;54.84;96996.16;4206030;27;1475084;-72
2022/08/30 05:23:12;;;;;;;;;;;;;;;23.84;54.65;96999.38;4262910;27;5672;-72
2022/08/30 05:25:16;;;;;;;;;;;;;;;24.06;54.08;96999.88;4258654;27;5606;-72
2022/08/30 05:27:19;;;;;;;;;;;;;;;24.22;53.51;97000.63;4259638;27;5562;-72
2022/08/30 05:29:22;;;;;;;;;;;;;;;24.36;53.46;96994.41;4258542;27;5775;-71
2022/08/30 05:31:27;;;;;;;;;;;;;;;24.47;53.22;96997.06;4256663;27;5887;-72
2022/08/30 05:33:30;;;;;;;;;;;;;;;24.58;52.83;96991.34;4261638;27;5791;-72
2022/08/30 05:35:40;;;;;;;;;;;;;;;24.68;52.53;96991.25;4242250;27;5533;-72
2022/08/30 05:37:45;;;;;;;;;;;;;;;24.78;52.38;96989.59;4263114;27;5638;-72
2022/08/30 05:39:48;;;;;;;;;;;;;;;24.84;51.89;96997.41;4255644;27;5608;-72
2022/08/30 05:41:56;;;;;;;;;;;;;;;24.88;52.13;96993.06;4258502;27;7276;-74
2022/08/30 05:44:00;;;;;;;;;;;;;;;24.90;51.75;96993.56;4256303;27;5598;-74
2022/08/30 05:46:06;;;;;;;;;;;;;;;24.92;51.89;96993.31;4260822;27;6285;-74
2022/08/30 05:48:09;;;;;;;;;;;;;;;24.95;51.67;96993.56;4256754;27;6722;-73
2022/08/30 05:50:15;;;;;;;;;;;;;;;24.99;51.17;96996.50;4261115;27;5888;-74
2022/08/30 05:52:18;;;;;;;;;;;;;;;25.01;51.02;96988.09;4255934;27;5583;-74
2022/08/30 05:54:22;;;;;;;;;;;;;;;25.04;51.14;96991.09;4262115;27;5764;-74
2022/08/30 05:56:27;;;;;;;;;;;;;;;25.07;51.03;96995.94;4256614;27;5097;-74
2022/08/30 05:58:31;;;;;;;;;;;;;;;25.09;50.58;96996.47;4256421;27;5589;-74
2022/08/30 06:00:36;;;;;;;;;;;;;;;25.10;50.42;96994.56;4264607;27;5601;-74
2022/08/30 06:02:40;;;;;;;;;;;;;;;25.13;50.33;97002.13;4237360;27;5548;-73
2022/08/30 06:04:43;;;;;;;;;;;;;;;25.15;50.23;97005.38;4260467;27;5641;-74
2022/08/30 06:06:46;;;;;;;;;;;;;;;25.16;49.90;97002.38;4260633;27;5726;-73
2022/08/30 06:08:50;;;;;;;;;;;;;;;25.17;50.02;97000.47;4239952;27;5545;-74
2022/08/30 06:10:54;;;;;;;;;;;;;;;25.18;49.66;97004.81;4255174;27;5700;-74
2022/08/30 06:12:57;;;;;;;;;;;;;;;25.20;49.70;96997.22;4257490;27;5606;-74
2022/08/30 06:15:00;;;;;;;;;;;;;;;25.20;49.21;96991.78;4256870;27;5594;-73
2022/08/30 06:17:03;;;;;;;;;;;;;;;25.22;49.58;97000.44;4255078;27;5710;-74
2022/08/30 06:19:09;;;;;;;;;;;;;;;25.22;49.10;97000.44;4253626;27;5838;-74
2022/08/30 06:21:16;;;;;;;;;;;;;;;25.23;49.41;97002.84;4252844;27;5796;-74
2022/08/30 06:23:20;;;;;;;;;;;;;;;25.25;49.11;96999.84;4247285;27;5747;-74
2022/08/30 06:25:22;;;;;;;;;;;;;;;25.27;48.84;97002.31;4247728;27;5765;-74
2022/08/30 06:27:44;;;;;;;;;;;;;;;25.29;48.81;97000.94;4248776;27;5601;-74
2022/08/30 06:29:51;;;;;;;;;;;;;;;25.31;48.90;97006.88;4247055;27;5605;-74
2022/08/30 06:31:56;;;;;;;;;;;;;;;25.31;48.98;97004.16;4248936;27;5645;-74
2022/08/30 06:33:59;;;;;;;;;;;;;;;25.34;48.52;97002.78;4249195;27;5689;-73
2022/08/30 06:36:03;;;;;;;;;;;;;;;25.34;48.59;97000.88;4244665;27;5669;-73
2022/08/30 06:38:08;;;;;;;;;;;;;;;25.36;48.67;97006.81;4231935;28;5647;-73
2022/08/30 06:40:15;;;;;;;;;;;;;;;25.38;48.43;97001.13;4244548;27;5599;-73
2022/08/30 06:42:18;;;;;;;;;;;;;;;25.41;48.32;97003.28;4246144;27;5633;-74
2022/08/30 06:44:22;;;;;;;;;;;;;;;25.42;48.20;97005.69;4248332;27;5578;-74
2022/08/30 06:46:27;;;;;;;;;;;;;;;25.43;48.10;96996.47;4242430;27;5635;-74
2022/08/30 06:48:30;;;;;;;;;;;;;;;25.44;48.03;96994.59;4246523;27;5574;-74
2022/08/30 06:50:33;;;;;;;;;;;;;;;25.44;48.31;96998.09;4243212;27;5099;-74
2022/08/30 06:52:36;;;;;;;;;;;;;;;25.46;47.87;96990.50;4221245;28;5831;-74
2022/08/30 06:54:40;;;;;;;;;;;;;;;25.48;48.06;96992.91;4243386;27;5638;-74
2022/08/30 06:56:43;;;;;;;;;;;;;;;25.51;47.83;96997.78;4243041;27;5719;-74
2022/08/30 06:59:00;;;;;;;;;;;;;;;25.52;47.42;96994.78;4252471;27;5698;-74
2022/08/30 07:01:05;;;;;;;;;;;;;;;25.53;47.45;96990.19;4240211;27;5859;-74
2022/08/30 07:03:09;;;;;;;;;;;;;;;25.54;47.41;96991.78;4225622;28;5540;-74
2022/08/30 07:05:16;;;;;;;;;;;;;;;25.55;47.49;96993.41;4217304;28;6997;-74
2022/08/30 07:07:21;;;;;;;;;;;;;;;25.58;47.25;96994.72;4239314;27;5796;-73
2022/08/30 07:09:25;;;;;;;;;;;;;;;25.62;47.11;97001.22;4246273;27;5645;-74
2022/08/30 07:11:31;;;;;;;;;;;;;;;25.65;46.83;97000.63;4225400;28;7648;-74
2022/08/30 07:13:35;;;;;;;;;;;;;;;25.69;46.79;96993.53;4249081;27;6400;-74
2022/08/30 07:15:41;;;;;;;;;;;;;;;25.74;46.51;96993.53;4248595;27;5578;-74
2022/08/30 07:20:10;;;;;;;;;;;;;;;25.81;46.54;96991.28;4250008;27;5694;-72
2022/08/30 07:22:13;;;;;;;;;;;;;;;25.82;46.57;96992.91;4243441;27;5658;-74
2022/08/30 07:24:17;;;;;;;;;;;;;;;25.84;46.44;96996.16;4244981;27;5687;-73
2022/08/30 07:26:23;;;;;;;;;;;;;;;25.86;46.28;96993.97;4233396;28;5560;-73
2022/08/30 07:28:26;;;;;;;;;;;;;;;25.86;46.04;96988.56;4223224;28;5540;-73
2022/08/30 07:30:30;;;;;;;;;;;;;;;25.87;46.39;96989.34;4228692;28;5505;-73
2022/08/30 07:32:33;;;;;;;;;;;;;;;25.89;46.28;96985.25;4246662;27;5699;-73
2022/08/30 07:34:38;;;;;;;;;;;;;;;25.91;46.18;96991.19;4226769;28;5604;-73
2022/08/30 07:36:40;;;;;;;;;;;;;;;25.92;45.87;97000.94;4247341;27;5601;-73
2022/08/30 07:38:44;;;;;;;;;;;;;;;25.92;45.86;97008.25;4246356;27;5602;-73
2022/08/30 07:40:47;;;;;;;;;;;;;;;25.92;45.77;97006.34;4244716;27;5602;-73
2022/08/30 07:42:51;;;;;;;;;;;;;;;25.92;46.03;97009.06;4247533;27;5620;-73
2022/08/30 07:44:54;;;;;;;;;;;;;;;25.91;45.62;97006.63;4245294;27;5822;-74
2022/08/30 07:46:58;;;;;;;;;;;;;;;25.92;45.88;97009.06;4246008;27;5606;-74
2022/08/30 07:49:02;;;;;;;;;;;;;;;25.90;45.46;97005.84;4242865;27;5125;-74
2022/08/30 07:51:10;;;;;;;;;;;;;;;25.89;45.62;97020.47;4246296;27;5856;-74
2022/08/30 07:53:14;;;;;;;;;;;;;;;25.89;45.46;97014.25;4243748;27;5605;-74
2022/08/30 07:55:17;;;;;;;;;;;;;;;25.94;45.73;97017.72;4243072;27;5727;-73
2022/08/30 07:57:21;;;;;;;;;;;;;;;25.98;45.35;97023.38;4245853;27;5577;-74
2022/08/30 07:59:24;;;;;;;;;;;;;;;26.00;45.22;97021.97;4249161;27;5594;-74
2022/08/30 08:01:27;;;;;;;;;;;;;;;26.03;45.33;97020.59;4246918;27;5672;-74
2022/08/30 08:03:30;;;;;;;;;;;;;;;26.05;45.29;97021.13;4250132;27;5593;-74
2022/08/30 08:05:38;;;;;;;;;;;;;;;26.06;45.26;97026.28;4244126;27;6504;-74
2022/08/30 08:07:43;;;;;;;;;;;;;;;26.08;45.35;97026.78;4244700;27;5650;-74
2022/08/30 08:09:49;;;;;;;;;;;;;;;26.09;45.57;97027.59;4226246;28;5541;-74
2022/08/30 08:11:52;;;;;;;;;;;;;;;26.09;45.53;97033.00;4241757;27;5732;-74
2022/08/30 08:13:56;;;;;;;;;;;;;;;26.11;45.58;97034.34;4245206;27;5696;-74
2022/08/30 08:15:59;;;;;;;;;;;;;;;26.12;45.36;97033.22;4238523;27;5661;-73
2022/08/30 08:18:02;;;;;;;;;;;;;;;26.14;45.44;97038.38;4247739;27;5594;-74
2022/08/30 08:20:07;;;;;;;;;;;;;;;26.15;45.56;97031.84;4247183;27;5832;-74
2022/08/30 08:22:10;;;;;;;;;;;;;;;26.20;45.32;97031.00;4244715;27;5582;-74
2022/08/30 08:24:30;;;;;;;;;;;;;;;26.25;45.32;97033.66;4247235;27;5590;-74
2022/08/30 08:26:35;;;;;;;;;;;;;;;26.29;45.50;97027.38;4227577;28;5670;-74
2022/08/30 08:28:40;;;;;;;;;;;;;;;26.30;45.47;97029.00;4246306;27;6328;-74
2022/08/30 08:30:43;;;;;;;;;;;;;;;26.32;45.40;97034.91;4239386;27;5614;-74
2022/08/30 08:32:52;;;;;;;;;;;;;;;26.35;45.26;97036.25;4246263;27;5574;-74
2022/08/30 08:34:55;;;;;;;;;;;;;;;26.37;45.29;97026.75;4237444;27;5602;-74
2022/08/30 08:36:58;;;;;;;;;;;;;;;26.40;45.54;97034.31;4243770;27;5574;-74
2022/08/30 08:39:03;;;;;;;;;;;;;;;26.39;45.46;97024.59;4228306;28;5521;-74
2022/08/30 08:41:16;;;;;;;;;;;;;;;26.43;45.33;97013.97;4246929;27;5669;-74
2022/08/30 08:43:25;;;;;;;;;;;;;;;26.49;45.53;97017.41;4247978;27;5713;-74
2022/08/30 08:45:42;;;;;;;;;;;;;;;26.55;45.16;97027.91;4246551;27;5823;-74
2022/08/30 08:47:54;;;;;;;;;;;;;;;26.61;45.32;97029.44;4245611;27;5612;-74
2022/08/30 08:50:01;;;;;;;;;;;;;;;26.64;45.19;97019.94;4228282;28;5625;-74
2022/08/30 08:54:41;;;;;;;;;;;;;;;26.63;45.35;97021.84;4243981;27;5578;-74
2022/08/30 08:56:45;;;;;;;;;;;;;;;26.60;45.25;97033.25;4244719;27;5614;-75
2022/08/30 08:58:50;;;;;;;;;;;;;;;26.59;45.43;97030.84;4247406;27;5575;-74
2022/08/30 09:00:55;;;;;;;;;;;;;;;26.57;45.44;97031.13;4246641;27;5731;-74
2022/08/30 09:03:00;;;;;;;;;;;;;;;26.57;45.47;97028.41;4247258;27;5656;-74
2022/08/30 09:05:04;;;;;;;;;;;;;;;26.55;45.69;97022.50;4246049;27;5714;-74
2022/08/30 09:07:14;;;;;;;;;;;;;;;26.56;45.71;97031.44;4246456;27;5605;-75
2022/08/30 09:09:21;;;;;;;;;;;;;;;26.58;45.90;97024.59;4239584;27;5609;-74
2022/08/30 09:11:27;;;;;;;;;;;;;;;26.62;45.96;97028.38;4245122;27;5574;-74
2022/08/30 09:13:33;;;;;;;;;;;;;;;26.61;45.60;97029.44;4229655;28;5505;-74
2022/08/30 09:15:36;;;;;;;;;;;;;;;26.59;46.15;97022.72;4233466;28;5644;-74
2022/08/30 09:17:53;;;;;;;;;;;;;;;26.58;46.16;97032.75;4244610;27;5593;-74
2022/08/30 09:20:01;;;;;;;;;;;;;;;26.61;46.10;97025.94;4244515;27;5744;-73
2022/08/30 09:22:11;;;;;;;;;;;;;;;26.59;46.29;97031.66;4244940;27;5630;-74
2022/08/30 09:24:15;;;;;;;;;;;;;;;26.57;46.02;97027.63;4227559;28;5553;-73
2022/08/30 09:26:30;;;;;;;;;;;;;;;26.62;46.15;97041.13;4243606;27;5165;-73
2022/08/30 09:28:45;;;;;;;;;;;;;;;26.67;46.12;97027.50;4219790;28;5617;-74
2022/08/30 09:31:03;;;;;;;;;;;;;;;26.73;46.23;97031.75;4224091;28;5501;-74
2022/08/30 09:33:20;;;;;;;;;;;;;;;26.78;46.06;97033.59;4219700;28;5769;-73
2022/08/30 09:35:26;;;;;;;;;;;;;;;26.78;46.00;97030.88;4246336;27;5087;-74
2022/08/30 09:37:35;;;;;;;;;;;;;;;26.76;46.20;97028.47;4244354;27;5669;-74
2022/08/30 09:39:43;;;;;;;;;;;;;;;26.74;45.99;97027.16;4243072;27;6309;-74
2022/08/30 09:41:49;;;;;;;;;;;;;;;26.76;46.02;97027.66;4245485;27;5784;-74
2022/08/30 09:44:07;;;;;;;;;;;;;;;26.81;45.74;97030.28;4246724;27;6410;-74
2022/08/30 09:46:12;;;;;;;;;;;;;;;26.83;45.75;97020.75;4243622;27;5672;-74
2022/08/30 09:48:29;;;;;;;;;;;;;;;26.82;45.57;97030.00;4242980;27;5670;-74
2022/08/30 09:50:36;;;;;;;;;;;;;;;26.83;45.54;97022.66;4248661;27;5578;-74
2022/08/30 09:53:09;;;;;;;;;;;;;;;26.83;45.60;97030.81;4250397;27;5612;-74
2022/08/30 09:55:24;;;;;;;;;;;;;;;26.79;45.66;97027.06;4245841;27;5755;-74
2022/08/30 09:57:38;;;;;;;;;;;;;;;26.76;45.56;97035.78;4238964;27;5720;-74
2022/08/30 09:59:49;;;;;;;;;;;;;;;26.76;45.63;97027.66;4249009;27;5585;-74
2022/08/30 10:01:59;;;;;;;;;;;;;;;26.75;45.55;97018.72;4248683;27;5807;-74
2022/08/30 10:04:12;;;;;;;;;;;;;;;26.75;45.57;97026.84;4248668;27;5819;-75
2022/08/30 10:06:25;;;;;;;;;;;;;;;26.75;45.23;97021.44;4249475;27;6369;-74
2022/08/30 10:08:42;;;;;;;;;;;;;;;26.81;45.39;97030.28;4246015;27;5586;-74
2022/08/30 10:10:51;;;;;;;;;;;;;;;26.84;45.39;97032.41;4227057;28;5549;-74
2022/08/30 10:13:06;;;;;;;;;;;;;;;26.85;45.10;97034.06;4247716;27;5644;-74
2022/08/30 10:15:18;;;;;;;;;;;;;;;26.89;45.06;97035.06;4246435;27;6072;-74
2022/08/30 10:17:40;;;;;;;;;;;;;;;26.91;44.84;97035.59;4229995;28;5623;-74
2022/08/30 10:19:59;;;;;;;;;;;;;;;26.93;44.97;97039.63;4246763;27;5587;-75
2022/08/30 10:22:07;;;;;;;;;;;;;;;26.96;45.00;97039.06;4249382;27;5692;-74
2022/08/30 10:24:15;;;;;;;;;;;;;;;26.99;45.09;97030.31;4246808;27;5585;-74
2022/08/30 10:26:31;;;;;;;;;;;;;;;27.04;45.32;97034.06;4249915;27;5098;-74
2022/08/30 10:28:39;;;;;;;;;;;;;;;27.06;45.32;97031.88;4247908;27;5787;-74
2022/08/30 10:30:47;;;;;;;;;;;;;;;27.04;45.33;97029.47;4248872;27;5826;-74
2022/08/30 10:32:58;;;;;;;;;;;;;;;27.06;45.46;97037.31;4245690;27;5590;-74
2022/08/30 10:35:07;;;;;;;;;;;;;;;27.10;45.73;97038.34;4248569;27;5809;-75
2022/08/30 10:37:14;;;;;;;;;;;;;;;27.10;45.79;97039.16;4231194;28;5745;-74
2022/08/30 10:39:24;;;;;;;;;;;;;;;27.14;45.92;97042.88;4246916;27;5663;-75
2022/08/30 10:41:34;;;;;;;;;;;;;;;27.16;45.78;97035.25;4249335;27;5736;-74
2022/08/30 10:43:49;;;;;;;;;;;;;;;27.18;45.96;97038.50;4248781;27;5757;-75
2022/08/30 10:46:02;;;;;;;;;;;;;;;27.20;46.13;97028.16;4246434;27;5597;-75
2022/08/30 10:48:11;;;;;;;;;;;;;;;27.19;46.23;97021.13;4245033;27;5711;-74
2022/08/30 10:50:18;;;;;;;;;;;;;;;27.20;46.59;97025.44;4248674;27;5654;-75
2022/08/30 10:52:31;;;;;;;;;;;;;;;27.20;46.55;97028.16;4240016;27;5674;-75
2022/08/30 10:54:46;;;;;;;;;;;;;;;27.21;46.57;97024.34;4250881;27;6255;-74
2022/08/30 10:56:55;;;;;;;;;;;;;;;27.20;46.57;97020.00;4252140;27;5586;-74
2022/08/30 10:58:58;;;;;;;;;;;;;;;27.21;46.89;97026.25;4235913;28;5522;-74
2022/08/30 11:01:26;;;;;;;;;;;;;;;27.23;46.65;97029.47;4245285;27;5676;-74
2022/08/30 11:04:12;;;;;;;;;;;;;;;27.23;46.91;97027.56;4243590;27;5585;-74
2022/08/30 11:06:24;;;;;;;;;;;;;;;27.28;46.86;97023.94;4247594;27;5690;-73
2022/08/30 11:08:48;;;;;;;;;;;;;;;27.31;46.79;97028.00;4252912;27;5930;-75
2022/08/30 11:11:06;;;;;;;;;;;;;;;27.32;46.88;97026.91;4225466;28;5680;-74
2022/08/30 11:13:20;;;;;;;;;;;;;;;27.32;46.88;97030.41;4245917;27;5605;-74
2022/08/30 11:15:26;;;;;;;;;;;;;;;27.30;46.93;97020.97;4247569;27;5905;-74
2022/08/30 11:17:38;;;;;;;;;;;;;;;27.27;46.89;97017.72;4247368;27;5783;-74
2022/08/30 11:19:41;;;;;;;;;;;;;;;27.24;46.88;97023.75;4247167;27;5570;-74
2022/08/30 11:21:45;;;;;;;;;;;;;;;27.26;46.82;97016.09;4246703;27;5594;-74
2022/08/30 11:24:04;;;;;;;;;;;;;;;27.28;46.57;97016.59;4247566;27;7561;-74
2022/08/30 11:26:51;;;;;;;;;;;;;;;27.30;46.86;97018.25;4228531;28;5724;-73
2022/08/30 11:29:07;;;;;;;;;;;;;;;27.26;46.86;97013.38;4247370;27;6866;-74
2022/08/30 11:31:12;;;;;;;;;;;;;;;27.25;46.66;97019.13;4247051;27;5607;-74
2022/08/30 11:33:44;;;;;;;;;;;;;;;27.22;46.84;97012.38;4241718;27;5610;-69
2022/08/30 11:35:51;;;;;;;;;;;;;;;27.19;46.98;97007.53;4225900;27;5570;-70
2022/08/30 11:37:54;;;;;;;;;;;;;;;27.15;46.97;97006.50;4248695;27;5594;-69
2022/08/30 11:39:59;;;;;;;;;;;;;;;27.13;46.80;97011.41;4246712;27;5704;-73
2022/08/30 11:42:24;;;;;;;;;;;;;;;27.10;47.08;97001.16;4252133;27;5678;-78
2022/08/30 11:44:33;;;;;;;;;;;;;;;27.08;46.63;97006.09;4250812;27;5698;-78
2022/08/30 11:46:38;;;;;;;;;;;;;;;27.06;46.61;97004.75;4249206;27;5586;-73
2022/08/30 11:48:51;;;;;;;;;;;;;;;27.04;46.74;97007.75;4249670;27;5589;-82
2022/08/30 11:51:06;;;;;;;;;;;;;;;27.02;46.50;97004.53;4233653;28;5615;-75
2022/08/30 11:53:18;;;;;;;;;;;;;;;27.03;46.59;97000.72;4242274;27;5751;-76
2022/08/30 11:55:45;;;;;;;;;;;;;;;27.04;46.67;97002.31;4243554;27;5581;-75
2022/08/30 11:57:56;;;;;;;;;;;;;;;27.06;46.40;96988.47;4246449;27;6330;-78
2022/08/30 12:00:07;;;;;;;;;;;;;;;27.06;46.61;96991.97;4222758;28;5575;-81
2022/08/30 12:02:30;;;;;;;;;;;;;;;27.07;46.37;96993.63;4249161;27;5820;-77
2022/08/30 12:04:44;;;;;;;;;;;;;;;27.07;46.24;96999.06;4233957;28;5549;-85
2022/08/30 12:06:51;;;;;;;;;;;;;;;27.08;46.37;96987.09;4250021;27;6408;-81
2022/08/30 12:08:54;;;;;;;;;;;;;;;27.08;46.41;96991.72;4242665;27;7662;-75
2022/08/30 12:11:07;;;;;;;;;;;;;;;27.07;46.54;96990.91;4247157;27;5768;-74
2022/08/30 12:13:53;;;;;;;;;;;;;;;27.07;46.33;96996.34;4239979;27;5636;-78
2022/08/30 12:15:58;;;;;;;;;;;;;;;27.05;46.44;96995.78;4244546;27;5714;-74
2022/08/30 12:20:29;;;;;;;;;;;;;;;27.02;46.52;96998.31;4241620;27;5590;-75
2022/08/30 12:22:36;;;;;;;;;;;;;;;26.99;46.54;96999.66;4245409;27;5611;-74
2022/08/30 12:24:44;;;;;;;;;;;;;;;26.95;46.44;97001.34;4246016;27;5585;-78
2022/08/30 12:26:48;;;;;;;;;;;;;;;26.94;46.46;97000.53;4250444;27;5820;-75
2022/08/30 12:29:05;;;;;;;;;;;;;;;26.94;46.38;97007.88;4251028;27;5586;-72
2022/08/30 12:31:11;;;;;;;;;;;;;;;26.92;46.10;97005.44;4233169;28;5525;-79
2022/08/30 12:33:25;;;;;;;;;;;;;;;26.90;46.28;97002.22;4245969;27;5617;-73
2022/08/30 12:35:34;;;;;;;;;;;;;;;26.89;45.91;96999.81;4247508;27;5679;-74
2022/08/30 12:37:40;;;;;;;;;;;;;;;26.90;45.91;97007.66;4231205;28;5513;-72
2022/08/30 12:39:45;;;;;;;;;;;;;;;26.88;46.03;96993.59;4249388;27;5573;-78
2022/08/30 12:41:56;;;;;;;;;;;;;;;26.91;46.11;96986.75;4246894;27;5625;-79
2022/08/30 12:44:00;;;;;;;;;;;;;;;26.92;46.04;96982.94;4244740;27;5642;-75
2022/08/30 12:46:11;;;;;;;;;;;;;;;26.93;46.17;96985.34;4248352;27;5693;-83
2022/08/30 12:48:19;;;;;;;;;;;;;;;26.95;46.15;96976.91;4249575;27;5692;-74
2022/08/30 12:50:26;;;;;;;;;;;;;;;26.98;45.90;96971.72;4243969;27;5668;-75
2022/08/30 12:52:35;;;;;;;;;;;;;;;27.02;46.07;96966.56;4249695;27;5573;-79
2022/08/30 12:54:40;;;;;;;;;;;;;;;27.05;46.03;96965.16;4230597;28;5525;-78
2022/08/30 12:57:02;;;;;;;;;;;;;;;27.08;46.06;96970.81;4250333;27;5688;-78
2022/08/30 12:59:44;;;;;;;;;;;;;;;27.11;45.94;96961.28;4227595;28;5600;-75
2022/08/30 13:02:07;;;;;;;;;;;;;;;27.14;45.74;96963.38;4250270;27;5856;-73
2022/08/30 13:04:27;;;;;;;;;;;;;;;27.14;45.84;96961.47;4224549;28;5520;-72
2022/08/30 13:06:43;;;;;;;;;;;;;;;27.15;45.80;96956.84;4245874;27;5776;-75
2022/08/30 13:08:52;;;;;;;;;;;;;;;27.18;45.74;96948.94;4244667;27;7667;-73
2022/08/30 13:10:59;;;;;;;;;;;;;;;27.27;45.53;96947.16;4243439;27;5749;-73
2022/08/30 13:13:09;;;;;;;;;;;;;;;27.34;45.55;96951.41;4247945;27;5827;-76
2022/08/30 13:15:17;;;;;;;;;;;;;;;27.39;45.26;96943.16;4247195;27;5585;-76
2022/08/30 13:17:24;;;;;;;;;;;;;;;27.41;44.95;96943.66;4250739;27;5640;-74
2022/08/30 13:19:34;;;;;;;;;;;;;;;27.40;45.10;96940.16;4242475;27;6374;-74
2022/08/30 13:21:50;;;;;;;;;;;;;;;27.41;45.15;96932.81;4247978;27;5842;-80
2022/08/30 13:23:58;;;;;;;;;;;;;;;27.43;44.81;96931.44;4232108;28;5517;-72
2022/08/30 13:26:07;;;;;;;;;;;;;;;27.45;45.00;96922.97;4244944;27;5759;-78
2022/08/30 13:28:13;;;;;;;;;;;;;;;27.46;44.98;96919.16;4249871;27;5574;-77
2022/08/30 13:30:16;;;;;;;;;;;;;;;27.44;45.05;96919.47;4249378;27;5735;-74
2022/08/30 13:32:19;;;;;;;;;;;;;;;27.44;45.05;96905.09;4251935;27;5102;-74
2022/08/30 13:34:22;;;;;;;;;;;;;;;27.43;45.39;96895.34;4251692;27;5578;-75
2022/08/30 13:36:30;;;;;;;;;;;;;;;27.43;45.44;96896.13;4252471;27;5741;-82
2022/08/30 13:38:33;;;;;;;;;;;;;;;27.47;45.46;96890.91;4244775;27;5811;-74
2022/08/30 13:40:39;;;;;;;;;;;;;;;27.47;45.77;96890.91;4246749;27;5694;-76
2022/08/30 13:42:43;;;;;;;;;;;;;;;27.49;45.81;96891.41;4232303;28;5536;-77
2022/08/30 13:44:46;;;;;;;;;;;;;;;27.49;45.89;96891.41;4254266;27;5784;-72
2022/08/30 13:46:53;;;;;;;;;;;;;;;27.49;45.59;96888.69;4252565;27;5799;-76
2022/08/30 13:49:20;;;;;;;;;;;;;;;27.52;45.94;96888.09;4252881;27;5790;-76
2022/08/30 13:51:43;;;;;;;;;;;;;;;27.51;45.59;96884.56;4224889;28;5810;-78
2022/08/30 13:54:06;;;;;;;;;;;;;;;27.52;45.53;96888.09;4237465;28;5728;-74
2022/08/30 13:56:11;;;;;;;;;;;;;;;27.53;45.65;96881.56;4239218;27;6287;-78
2022/08/30 13:58:16;;;;;;;;;;;;;;;27.57;45.51;96879.84;4245626;27;5720;-84
2022/08/30 14:00:21;;;;;;;;;;;;;;;27.59;45.58;96884.97;4251813;27;5646;-78
2022/08/30 14:02:27;;;;;;;;;;;;;;;27.59;45.31;96891.22;4250704;27;5963;-82
2022/08/30 14:04:32;;;;;;;;;;;;;;;27.56;45.19;96883.69;4253754;27;5581;-80
2022/08/30 14:06:35;;;;;;;;;;;;;;;27.59;45.22;96885.78;4252292;27;5721;-80
2022/08/30 14:09:00;;;;;;;;;;;;;;;27.55;44.99;96876.66;4251573;27;5577;-84
2022/08/30 14:11:08;;;;;;;;;;;;;;;27.59;45.06;96874.94;4247838;27;5871;-81
2022/08/30 14:13:12;;;;;;;;;;;;;;;27.55;44.95;96874.72;4232181;28;5508;-75
2022/08/30 14:15:15;;;;;;;;;;;;;;;27.58;44.92;96876.03;4247641;27;5630;-78
2022/08/30 14:17:19;;;;;;;;;;;;;;;27.57;44.66;96869.00;4254341;27;5583;-83
2022/08/30 14:19:22;;;;;;;;;;;;;;;27.60;44.76;96864.88;4253744;27;5598;-78
2022/08/30 14:21:27;;;;;;;;;;;;;;;27.61;44.50;96853.69;4225484;28;5517;-72
2022/08/30 14:23:32;;;;;;;;;;;;;;;27.61;44.43;96850.19;4244794;27;5593;-72
2022/08/30 14:25:35;;;;;;;;;;;;;;;27.61;44.50;96844.75;4244986;27;5588;-73
2022/08/30 14:27:39;;;;;;;;;;;;;;;27.64;44.30;96839.53;4222045;27;8552;-72
2022/08/30 14:29:43;;;;;;;;;;;;;;;27.63;44.39;96828.97;4248306;27;5593;-71
2022/08/30 14:31:49;;;;;;;;;;;;;;;27.62;44.20;96839.00;4249485;27;5897;-68
2022/08/30 14:33:54;;;;;;;;;;;;;;;27.62;43.99;96830.06;4248655;27;5839;-69
2022/08/30 14:35:57;;;;;;;;;;;;;;;27.61;43.98;96831.97;4247936;27;5692;-68
2022/08/30 14:38:02;;;;;;;;;;;;;;;27.58;44.13;96835.31;4246955;27;6369;-68
2022/08/30 14:40:06;;;;;;;;;;;;;;;27.52;43.75;96820.19;4249174;27;5594;-69
2022/08/30 14:42:11;;;;;;;;;;;;;;;27.56;43.83;96827.47;4249250;27;5705;-69
2022/08/30 14:44:22;;;;;;;;;;;;;;;27.57;43.60;96825.56;4247765;27;6356;-68
2022/08/30 14:46:27;;;;;;;;;;;;;;;27.54;43.89;96821.53;4242425;27;5593;-69
2022/08/30 14:48:30;;;;;;;;;;;;;;;27.53;43.88;96819.13;4246789;27;5851;-68
2022/08/30 14:50:33;;;;;;;;;;;;;;;27.54;43.75;96826.97;4228368;28;5505;-67
2022/08/30 14:52:37;;;;;;;;;;;;;;;27.54;43.82;96812.59;4246589;27;6703;-71
2022/08/30 14:54:41;;;;;;;;;;;;;;;27.56;43.64;96819.31;4247663;27;5573;-68
2022/08/30 14:56:44;;;;;;;;;;;;;;;27.58;43.78;96813.59;4246994;27;5666;-69
2022/08/30 14:58:48;;;;;;;;;;;;;;;27.58;44.10;96819.00;4248527;27;6373;-66
2022/08/30 15:00:52;;;;;;;;;;;;;;;27.58;44.09;96810.88;4248442;27;5590;-70
2022/08/30 15:02:57;;;;;;;;;;;;;;;27.59;44.12;96807.03;4226887;28;5632;-68
2022/08/30 15:05:00;;;;;;;;;;;;;;;27.60;44.01;96807.84;4231243;28;5490;-69
2022/08/30 15:07:04;;;;;;;;;;;;;;;27.61;44.43;96804.81;4242033;27;5499;-68
2022/08/30 15:09:09;;;;;;;;;;;;;;;27.64;44.30;96803.44;4229123;28;5648;-70
2022/08/30 15:11:16;;;;;;;;;;;;;;;27.62;44.31;96809.16;4230985;28;5084;-78
2022/08/30 15:13:19;;;;;;;;;;;;;;;27.51;44.37;96789.53;4247667;27;5581;-75
2022/08/30 15:15:25;;;;;;;;;;;;;;;27.58;44.44;96804.63;4247895;27;5856;-73
2022/08/30 15:17:29;;;;;;;;;;;;;;;27.59;44.42;96800.81;4248876;27;6390;-84
2022/08/30 15:19:34;;;;;;;;;;;;;;;27.56;44.32;96796.78;4248530;27;5665;-81
2022/08/30 15:21:42;;;;;;;;;;;;;;;27.56;44.44;96792.16;4229272;28;5506;-72
2022/08/30 15:23:47;;;;;;;;;;;;;;;27.58;44.63;96793.78;4227953;28;5576;-76
2022/08/30 15:25:54;;;;;;;;;;;;;;;27.59;44.58;96790.75;4248954;27;5787;-73
2022/08/30 15:27:57;;;;;;;;;;;;;;;27.58;44.84;96791.06;4247167;27;5680;-65
2022/08/30 15:30:00;;;;;;;;;;;;;;;27.58;44.98;96791.06;4241274;27;5743;-67
2022/08/30 15:32:05;;;;;;;;;;;;;;;27.56;45.15;96781.31;4246166;27;5690;-64
2022/08/30 15:34:09;;;;;;;;;;;;;;;27.55;45.34;96778.91;4246943;27;5618;-66
2022/08/30 15:36:14;;;;;;;;;;;;;;;27.51;45.37;96777.88;4246602;27;5722;-65
2022/08/30 15:38:17;;;;;;;;;;;;;;;27.47;45.24;96777.69;4243776;27;5158;-64
2022/08/30 15:40:23;;;;;;;;;;;;;;;27.41;45.36;96776.19;4246113;27;5835;-63
2022/08/30 15:42:28;;;;;;;;;;;;;;;27.38;45.98;96770.53;4245333;27;5756;-69
2022/08/30 15:44:31;;;;;;;;;;;;;;;27.34;45.92;96773.06;4230332;28;5518;-69
2022/08/30 15:46:38;;;;;;;;;;;;;;;27.34;45.90;96783.13;4243004;27;5843;-67
2022/08/30 15:48:43;;;;;;;;;;;;;;;27.32;46.01;96785.31;4245203;27;5756;-69
2022/08/30 15:50:56;;;;;;;;;;;;;;;27.27;46.00;96781.59;4245122;27;5687;-73
2022/08/30 15:53:01;;;;;;;;;;;;;;;27.28;46.24;96780.47;4246645;27;5668;-71
2022/08/30 15:55:04;;;;;;;;;;;;;;;27.25;46.09;96781.09;4243089;27;5772;-69
2022/08/30 15:57:07;;;;;;;;;;;;;;;27.22;46.21;96781.69;4225265;28;5752;-63
2022/08/30 15:59:13;;;;;;;;;;;;;;;27.21;45.97;96784.72;4243632;27;5812;-66
2022/08/30 16:01:17;;;;;;;;;;;;;;;27.17;46.00;96789.91;4244698;27;5648;-66
2022/08/30 16:03:33;;;;;;;;;;;;;;;27.16;46.03;96793.75;4243065;27;6255;-65
2022/08/30 16:05:39;;;;;;;;;;;;;;;27.16;45.92;96796.44;4245229;27;5664;-65
2022/08/30 16:07:45;;;;;;;;;;;;;;;27.15;45.94;96794.03;4242339;27;5949;-65
2022/08/30 16:09:49;;;;;;;;;;;;;;;27.14;45.82;96795.94;4242539;27;6271;-66
2022/08/30 16:11:53;;;;;;;;;;;;;;;27.12;45.62;96803.59;4245477;27;5804;-65
2022/08/30 16:13:57;;;;;;;;;;;;;;;27.11;45.48;96804.69;4239464;27;6478;-65
2022/08/30 16:16:01;;;;;;;;;;;;;;;27.10;45.50;96800.38;4243416;27;5688;-65
2022/08/30 16:18:04;;;;;;;;;;;;;;;27.09;45.70;96792.53;4240902;27;7538;-66
2022/08/30 16:20:08;;;;;;;;;;;;;;;27.11;45.54;96804.69;4244770;27;5868;-65
2022/08/30 16:22:13;;;;;;;;;;;;;;;27.10;45.78;96810.44;4245350;27;5586;-65
2022/08/30 16:24:24;;;;;;;;;;;;;;;27.08;45.86;96812.63;4246793;27;5596;-65
2022/08/30 16:26:33;;;;;;;;;;;;;;;27.07;45.80;96817.25;4247533;27;5106;-65
2022/08/30 16:28:37;;;;;;;;;;;;;;;27.05;46.05;96814.00;4244790;27;5780;-70
2022/08/30 16:30:40;;;;;;;;;;;;;;;27.05;46.11;96819.44;4240882;27;5898;-65
2022/08/30 16:32:48;;;;;;;;;;;;;;;27.02;46.10;96828.19;4245159;27;5696;-67
2022/08/30 16:34:50;;;;;;;;;;;;;;;27.02;46.47;96828.19;4243858;27;5777;-66
2022/08/30 16:36:54;;;;;;;;;;;;;;;26.99;46.63;96826.03;4246564;27;5610;-66
2022/08/30 16:38:57;;;;;;;;;;;;;;;26.97;46.77;96826.34;4242369;27;5879;-65
2022/08/30 16:41:03;;;;;;;;;;;;;;;26.95;46.80;96825.00;4245527;27;6390;-65
2022/08/30 16:43:08;;;;;;;;;;;;;;;26.94;47.04;96828.81;4241535;27;5786;-65